Terminal Aerodrome Forecast
Issued by NWS

Home | Current Version | Previous Version | Text Only | Print | Product List | Glossary On
Versions: 1 2 3 4 5 6 7 8 9 10 11 12 13 14 15 16 17 18 19 20 21 22 23 24 25
905
FTUS41 KCAR 120803 AAC
TAFPQI
TAF AMD
KPQI 120803Z 1208/1306 32009KT 4SM -SHSN OVC020
     FM120900 32009KT P6SM SCT022 BKN035
     FM121500 28007KT P6SM SCT030
     FM122000 26007KT P6SM SCT035
     FM122300 VRB03KT P6SM SCT040
     FM130200 VRB03KT P6SM BKN035=

USA.gov is the U.S. government's official web portal to all federal, state and local government web resources and services.